sensor_id;sensor_type;location;lat;lon;timestamp;P1;durP1;ratioP1;P2;durP2;ratioP2
50880;SDS011;36858;47.832;-3.800;2023-04-15T06:18:41;6.40;;;1.33;;
50880;SDS011;36858;47.832;-3.800;2023-04-15T06:21:09;11.10;;;1.63;;
50880;SDS011;36858;47.832;-3.800;2023-04-15T06:23:36;7.13;;;1.30;;
50880;SDS011;36858;47.832;-3.800;2023-04-15T06:26:03;3.83;;;1.37;;
50880;SDS011;36858;47.832;-3.800;2023-04-15T06:28:30;3.97;;;1.20;;
50880;SDS011;36858;47.832;-3.800;2023-04-15T06:30:57;3.20;;;1.50;;
50880;SDS011;36858;47.832;-3.800;2023-04-15T06:33:24;5.20;;;1.63;;
50880;SDS011;36858;47.832;-3.800;2023-04-15T06:35:51;6.73;;;1.27;;
50880;SDS011;36858;47.832;-3.800;2023-04-15T06:38:19;3.87;;;1.20;;
50880;SDS011;36858;47.832;-3.800;2023-04-15T06:40:46;4.50;;;1.63;;
50880;SDS011;36858;47.832;-3.800;2023-04-15T06:43:13;4.10;;;1.23;;
50880;SDS011;36858;47.832;-3.800;2023-04-15T06:45:41;14.20;;;1.63;;
50880;SDS011;36858;47.832;-3.800;2023-04-15T06:48:08;9.90;;;1.70;;
50880;SDS011;36858;47.832;-3.800;2023-04-15T06:50:35;13.10;;;3.60;;
50880;SDS011;36858;47.832;-3.800;2023-04-15T06:53:01;9.10;;;3.13;;
50880;SDS011;36858;47.832;-3.800;2023-04-15T06:55:29;8.70;;;2.13;;
50880;SDS011;36858;47.832;-3.800;2023-04-15T06:57:57;7.67;;;2.27;;
50880;SDS011;36858;47.832;-3.800;2023-04-15T07:00:24;4.57;;;1.70;;
50880;SDS011;36858;47.832;-3.800;2023-04-15T07:02:51;11.33;;;1.87;;
50880;SDS011;36858;47.832;-3.800;2023-04-15T07:05:18;6.30;;;1.57;;
50880;SDS011;36858;47.832;-3.800;2023-04-15T07:07:45;4.73;;;1.60;;
50880;SDS011;36858;47.832;-3.800;2023-04-15T07:10:12;7.70;;;2.50;;
50880;SDS011;36858;47.832;-3.800;2023-04-15T07:12:41;7.17;;;1.93;;
50880;SDS011;36858;47.832;-3.800;2023-04-15T07:15:08;7.13;;;1.73;;
50880;SDS011;36858;47.832;-3.800;2023-04-15T07:17:35;6.00;;;1.70;;
50880;SDS011;36858;47.832;-3.800;2023-04-15T07:20:03;4.37;;;1.70;;
50880;SDS011;36858;47.832;-3.800;2023-04-15T07:22:30;7.43;;;2.10;;
50880;SDS011;36858;47.832;-3.800;2023-04-15T07:24:57;9.30;;;1.47;;
50880;SDS011;36858;47.832;-3.800;2023-04-15T07:27:24;5.10;;;1.60;;
50880;SDS011;36858;47.832;-3.800;2023-04-15T07:29:53;12.23;;;1.53;;
50880;SDS011;36858;47.832;-3.800;2023-04-15T07:32:20;11.33;;;1.93;;
50880;SDS011;36858;47.832;-3.800;2023-04-15T07:34:47;8.63;;;2.73;;
50880;SDS011;36858;47.832;-3.800;2023-04-15T07:37:14;10.53;;;3.20;;
50880;SDS011;36858;47.832;-3.800;2023-04-15T07:39:41;14.03;;;2.13;;
50880;SDS011;36858;47.832;-3.800;2023-04-15T07:42:09;11.40;;;3.50;;
50880;SDS011;36858;47.832;-3.800;2023-04-15T07:44:36;9.83;;;2.57;;
50880;SDS011;36858;47.832;-3.800;2023-04-15T07:47:03;8.67;;;2.53;;
50880;SDS011;36858;47.832;-3.800;2023-04-15T07:49:30;9.63;;;2.10;;
50880;SDS011;36858;47.832;-3.800;2023-04-15T07:51:57;7.83;;;2.20;;
50880;SDS011;36858;47.832;-3.800;2023-04-15T07:54:25;9.93;;;2.40;;
50880;SDS011;36858;47.832;-3.800;2023-04-15T07:56:52;8.97;;;2.30;;
50880;SDS011;36858;47.832;-3.800;2023-04-15T07:59:19;6.27;;;2.10;;
50880;SDS011;36858;47.832;-3.800;2023-04-15T08:01:47;8.57;;;2.23;;
50880;SDS011;36858;47.832;-3.800;2023-04-15T08:04:14;6.90;;;1.57;;
50880;SDS011;36858;47.832;-3.800;2023-04-15T08:06:41;7.33;;;1.63;;
50880;SDS011;36858;47.832;-3.800;2023-04-15T08:09:09;5.47;;;1.50;;
50880;SDS011;36858;47.832;-3.800;2023-04-15T08:11:36;7.50;;;1.60;;
50880;SDS011;36858;47.832;-3.800;2023-04-15T08:14:03;3.70;;;1.33;;
50880;SDS011;36858;47.832;-3.800;2023-04-15T08:16:31;2.43;;;1.10;;
50880;SDS011;36858;47.832;-3.800;2023-04-15T08:21:51;7.33;;;2.00;;
50880;SDS011;36858;47.832;-3.800;2023-04-15T08:24:18;9.60;;;2.17;;
50880;SDS011;36858;47.832;-3.800;2023-04-15T08:26:45;7.43;;;2.57;;
50880;SDS011;36858;47.832;-3.800;2023-04-15T08:29:13;5.57;;;1.60;;
50880;SDS011;36858;47.832;-3.800;2023-04-15T08:31:40;8.67;;;1.53;;
50880;SDS011;36858;47.832;-3.800;2023-04-15T08:34:07;7.33;;;1.37;;
50880;SDS011;36858;47.832;-3.800;2023-04-15T08:36:34;6.80;;;1.73;;
50880;SDS011;36858;47.832;-3.800;2023-04-15T08:39:01;4.43;;;1.60;;
50880;SDS011;36858;47.832;-3.800;2023-04-15T08:41:38;10.57;;;1.80;;
50880;SDS011;36858;47.832;-3.800;2023-04-15T08:44:13;6.13;;;1.30;;
50880;SDS011;36858;47.832;-3.800;2023-04-15T08:46:40;5.17;;;1.30;;
50880;SDS011;36858;47.832;-3.800;2023-04-15T08:49:10;4.83;;;1.10;;
50880;SDS011;36858;47.832;-3.800;2023-04-15T08:51:41;8.63;;;1.20;;
50880;SDS011;36858;47.832;-3.800;2023-04-15T08:54:08;8.73;;;1.27;;
50880;SDS011;36858;47.832;-3.800;2023-04-15T08:56:37;4.90;;;1.20;;
50880;SDS011;36858;47.832;-3.800;2023-04-15T08:59:04;3.00;;;1.00;;
50880;SDS011;36858;47.832;-3.800;2023-04-15T09:01:32;2.37;;;0.93;;
50880;SDS011;36858;47.832;-3.800;2023-04-15T09:03:59;6.13;;;0.93;;
50880;SDS011;36858;47.832;-3.800;2023-04-15T09:06:28;5.47;;;1.90;;
50880;SDS011;36858;47.832;-3.800;2023-04-15T09:08:55;4.77;;;1.20;;
50880;SDS011;36858;47.832;-3.800;2023-04-15T09:11:23;6.03;;;1.03;;
50880;SDS011;36858;47.832;-3.800;2023-04-15T09:13:50;5.87;;;1.20;;
50880;SDS011;36858;47.832;-3.800;2023-04-15T09:16:17;3.70;;;1.10;;
50880;SDS011;36858;47.832;-3.800;2023-04-15T09:18:45;3.87;;;0.83;;
50880;SDS011;36858;47.832;-3.800;2023-04-15T09:21:13;2.57;;;1.30;;
50880;SDS011;36858;47.832;-3.800;2023-04-15T09:23:55;4.63;;;1.00;;
50880;SDS011;36858;47.832;-3.800;2023-04-15T09:26:33;2.80;;;0.70;;
50880;SDS011;36858;47.832;-3.800;2023-04-15T09:29:08;5.07;;;0.80;;
50880;SDS011;36858;47.832;-3.800;2023-04-15T09:31:36;2.97;;;0.90;;
50880;SDS011;36858;47.832;-3.800;2023-04-15T09:34:04;1.33;;;0.67;;
50880;SDS011;36858;47.832;-3.800;2023-04-15T09:36:50;4.07;;;1.33;;
50880;SDS011;36858;47.832;-3.800;2023-04-15T09:39:19;2.97;;;0.77;;
50880;SDS011;36858;47.832;-3.800;2023-04-15T09:41:46;3.20;;;0.77;;
50880;SDS011;36858;47.832;-3.800;2023-04-15T09:44:29;2.67;;;1.60;;
50880;SDS011;36858;47.832;-3.800;2023-04-15T09:46:56;2.87;;;0.80;;
50880;SDS011;36858;47.832;-3.800;2023-04-15T09:49:23;3.83;;;0.70;;
50880;SDS011;36858;47.832;-3.800;2023-04-15T09:51:50;4.80;;;0.80;;
50880;SDS011;36858;47.832;-3.800;2023-04-15T09:54:32;4.60;;;1.03;;
50880;SDS011;36858;47.832;-3.800;2023-04-15T09:57:07;4.57;;;1.03;;
50880;SDS011;36858;47.832;-3.800;2023-04-15T09:59:35;2.40;;;0.60;;
50880;SDS011;36858;47.832;-3.800;2023-04-15T10:02:03;3.90;;;0.63;;
50880;SDS011;36858;47.832;-3.800;2023-04-15T10:04:37;5.77;;;0.90;;
50880;SDS011;36858;47.832;-3.800;2023-04-15T10:07:07;1.93;;;0.80;;
50880;SDS011;36858;47.832;-3.800;2023-04-15T10:09:35;3.90;;;1.67;;
50880;SDS011;36858;47.832;-3.800;2023-04-15T10:12:03;3.03;;;0.90;;
50880;SDS011;36858;47.832;-3.800;2023-04-15T10:14:31;2.27;;;0.60;;
50880;SDS011;36858;47.832;-3.800;2023-04-15T10:17:00;4.73;;;1.10;;
50880;SDS011;36858;47.832;-3.800;2023-04-15T10:19:30;3.00;;;0.63;;
50880;SDS011;36858;47.832;-3.800;2023-04-15T10:21:57;4.47;;;0.90;;
50880;SDS011;36858;47.832;-3.800;2023-04-15T10:24:25;2.23;;;1.00;;
50880;SDS011;36858;47.832;-3.800;2023-04-15T10:26:53;2.57;;;0.63;;
50880;SDS011;36858;47.832;-3.800;2023-04-15T10:29:20;1.70;;;0.60;;
50880;SDS011;36858;47.832;-3.800;2023-04-15T10:31:50;2.23;;;0.63;;
50880;SDS011;36858;47.832;-3.800;2023-04-15T10:34:20;3.53;;;0.83;;
50880;SDS011;36858;47.832;-3.800;2023-04-15T10:36:47;3.30;;;1.13;;
50880;SDS011;36858;47.832;-3.800;2023-04-15T10:42:13;1.73;;;0.70;;
50880;SDS011;36858;47.832;-3.800;2023-04-15T10:44:44;2.20;;;0.70;;
50880;SDS011;36858;47.832;-3.800;2023-04-15T10:47:15;4.00;;;0.60;;
50880;SDS011;36858;47.832;-3.800;2023-04-15T10:49:51;3.00;;;0.80;;
50880;SDS011;36858;47.832;-3.800;2023-04-15T10:52:23;2.20;;;0.80;;
50880;SDS011;36858;47.832;-3.800;2023-04-15T10:55:03;2.07;;;0.80;;
50880;SDS011;36858;47.832;-3.800;2023-04-15T10:57:38;2.10;;;0.80;;
50880;SDS011;36858;47.832;-3.800;2023-04-15T11:00:10;4.93;;;0.87;;
50880;SDS011;36858;47.832;-3.800;2023-04-15T11:02:55;5.13;;;0.83;;
50880;SDS011;36858;47.832;-3.800;2023-04-15T11:08:17;4.60;;;0.70;;
50880;SDS011;36858;47.832;-3.800;2023-04-15T11:15:41;2.40;;;0.60;;
50880;SDS011;36858;47.832;-3.800;2023-04-15T11:20:45;1.53;;;0.57;;
50880;SDS011;36858;47.832;-3.800;2023-04-15T11:23:20;2.97;;;0.50;;
50880;SDS011;36858;47.832;-3.800;2023-04-15T11:25:57;4.43;;;0.90;;
50880;SDS011;36858;47.832;-3.800;2023-04-15T11:28:29;2.40;;;0.40;;
50880;SDS011;36858;47.832;-3.800;2023-04-15T11:30:57;1.87;;;0.60;;
50880;SDS011;36858;47.832;-3.800;2023-04-15T11:33:24;4.00;;;0.80;;
50880;SDS011;36858;47.832;-3.800;2023-04-15T11:35:52;2.00;;;0.60;;
50880;SDS011;36858;47.832;-3.800;2023-04-15T11:38:20;4.03;;;0.50;;
50880;SDS011;36858;47.832;-3.800;2023-04-15T11:40:48;2.90;;;0.70;;
50880;SDS011;36858;47.832;-3.800;2023-04-15T11:43:17;5.50;;;1.63;;
50880;SDS011;36858;47.832;-3.800;2023-04-15T11:45:57;1.67;;;0.80;;
50880;SDS011;36858;47.832;-3.800;2023-04-15T11:48:31;1.20;;;0.40;;
50880;SDS011;36858;47.832;-3.800;2023-04-15T11:51:00;3.37;;;0.70;;
50880;SDS011;36858;47.832;-3.800;2023-04-15T11:53:35;2.13;;;0.67;;
50880;SDS011;36858;47.832;-3.800;2023-04-15T11:56:04;1.53;;;0.70;;
50880;SDS011;36858;47.832;-3.800;2023-04-15T11:58:32;2.17;;;0.70;;
50880;SDS011;36858;47.832;-3.800;2023-04-15T12:01:00;1.83;;;0.50;;
50880;SDS011;36858;47.832;-3.800;2023-04-15T12:03:49;2.43;;;0.60;;
50880;SDS011;36858;47.832;-3.800;2023-04-15T12:06:19;3.43;;;0.80;;
50880;SDS011;36858;47.832;-3.800;2023-04-15T12:11:30;1.87;;;0.63;;
50880;SDS011;36858;47.832;-3.800;2023-04-15T12:13:58;1.93;;;0.70;;
50880;SDS011;36858;47.832;-3.800;2023-04-15T12:16:29;1.50;;;0.70;;
50880;SDS011;36858;47.832;-3.800;2023-04-15T12:18:57;1.77;;;0.50;;
50880;SDS011;36858;47.832;-3.800;2023-04-15T12:21:26;2.37;;;0.50;;
50880;SDS011;36858;47.832;-3.800;2023-04-15T12:23:55;2.33;;;0.57;;
50880;SDS011;36858;47.832;-3.800;2023-04-15T12:26:27;1.93;;;0.83;;
50880;SDS011;36858;47.832;-3.800;2023-04-15T12:29:02;2.13;;;0.67;;
50880;SDS011;36858;47.832;-3.800;2023-04-15T12:31:31;0.97;;;0.40;;
50880;SDS011;36858;47.832;-3.800;2023-04-15T12:33:59;0.50;;;0.33;;
50880;SDS011;36858;47.832;-3.800;2023-04-15T12:36:27;3.10;;;0.50;;
50880;SDS011;36858;47.832;-3.800;2023-04-15T12:38:57;0.87;;;0.70;;
50880;SDS011;36858;47.832;-3.800;2023-04-15T12:41:24;4.77;;;0.67;;
50880;SDS011;36858;47.832;-3.800;2023-04-15T12:43:51;1.27;;;0.70;;
50880;SDS011;36858;47.832;-3.800;2023-04-15T12:46:18;1.87;;;0.90;;
50880;SDS011;36858;47.832;-3.800;2023-04-15T12:48:46;1.20;;;0.50;;
50880;SDS011;36858;47.832;-3.800;2023-04-15T12:51:13;1.60;;;0.67;;
50880;SDS011;36858;47.832;-3.800;2023-04-15T12:53:40;1.97;;;0.50;;
50880;SDS011;36858;47.832;-3.800;2023-04-15T12:56:07;1.20;;;0.40;;
50880;SDS011;36858;47.832;-3.800;2023-04-15T12:58:34;1.50;;;0.60;;
50880;SDS011;36858;47.832;-3.800;2023-04-15T13:01:02;2.43;;;0.60;;
50880;SDS011;36858;47.832;-3.800;2023-04-15T13:03:29;3.07;;;0.60;;
50880;SDS011;36858;47.832;-3.800;2023-04-15T13:05:56;2.27;;;0.70;;
50880;SDS011;36858;47.832;-3.800;2023-04-15T13:08:23;1.50;;;0.60;;
50880;SDS011;36858;47.832;-3.800;2023-04-15T13:10:51;1.33;;;0.40;;
50880;SDS011;36858;47.832;-3.800;2023-04-15T13:13:18;3.20;;;0.70;;
50880;SDS011;36858;47.832;-3.800;2023-04-15T13:15:45;4.20;;;0.70;;
50880;SDS011;36858;47.832;-3.800;2023-04-15T13:18:11;4.57;;;0.90;;
50880;SDS011;36858;47.832;-3.800;2023-04-15T13:20:39;1.60;;;0.50;;
50880;SDS011;36858;47.832;-3.800;2023-04-15T13:23:06;1.53;;;0.40;;
50880;SDS011;36858;47.832;-3.800;2023-04-15T13:25:33;1.10;;;0.70;;
50880;SDS011;36858;47.832;-3.800;2023-04-15T13:28:01;1.10;;;0.40;;
50880;SDS011;36858;47.832;-3.800;2023-04-15T13:30:28;0.70;;;0.40;;
50880;SDS011;36858;47.832;-3.800;2023-04-15T13:32:56;0.37;;;0.37;;
50880;SDS011;36858;47.832;-3.800;2023-04-15T13:35:23;5.87;;;0.70;;
50880;SDS011;36858;47.832;-3.800;2023-04-15T13:37:52;1.90;;;0.60;;
50880;SDS011;36858;47.832;-3.800;2023-04-15T13:40:19;2.83;;;0.60;;
50880;SDS011;36858;47.832;-3.800;2023-04-15T13:42:46;0.70;;;0.40;;
50880;SDS011;36858;47.832;-3.800;2023-04-15T13:45:14;0.87;;;0.40;;
50880;SDS011;36858;47.832;-3.800;2023-04-15T13:47:41;1.47;;;0.40;;
50880;SDS011;36858;47.832;-3.800;2023-04-15T13:50:09;2.83;;;0.80;;
50880;SDS011;36858;47.832;-3.800;2023-04-15T13:52:36;2.43;;;0.70;;
50880;SDS011;36858;47.832;-3.800;2023-04-15T13:55:03;1.33;;;0.60;;
50880;SDS011;36858;47.832;-3.800;2023-04-15T13:57:45;1.50;;;0.50;;
50880;SDS011;36858;47.832;-3.800;2023-04-15T14:00:12;2.40;;;0.70;;
50880;SDS011;36858;47.832;-3.800;2023-04-15T14:02:40;3.67;;;1.10;;
50880;SDS011;36858;47.832;-3.800;2023-04-15T14:05:10;0.73;;;0.60;;
50880;SDS011;36858;47.832;-3.800;2023-04-15T14:07:37;4.40;;;2.07;;
50880;SDS011;36858;47.832;-3.800;2023-04-15T14:10:04;11.83;;;6.80;;
50880;SDS011;36858;47.832;-3.800;2023-04-15T14:12:31;15.03;;;5.73;;
50880;SDS011;36858;47.832;-3.800;2023-04-15T14:14:58;25.33;;;5.83;;
50880;SDS011;36858;47.832;-3.800;2023-04-15T14:17:25;21.00;;;5.13;;
50880;SDS011;36858;47.832;-3.800;2023-04-15T14:19:53;8.73;;;2.70;;
50880;SDS011;36858;47.832;-3.800;2023-04-15T14:22:20;6.23;;;2.00;;
50880;SDS011;36858;47.832;-3.800;2023-04-15T14:24:47;3.70;;;1.13;;
50880;SDS011;36858;47.832;-3.800;2023-04-15T14:27:14;2.67;;;1.10;;
50880;SDS011;36858;47.832;-3.800;2023-04-15T14:29:42;4.70;;;1.20;;
50880;SDS011;36858;47.832;-3.800;2023-04-15T14:32:09;3.20;;;0.70;;
50880;SDS011;36858;47.832;-3.800;2023-04-15T14:34:38;3.93;;;0.70;;
50880;SDS011;36858;47.832;-3.800;2023-04-15T14:37:05;2.47;;;0.67;;
50880;SDS011;36858;47.832;-3.800;2023-04-15T14:39:32;8.90;;;1.93;;
50880;SDS011;36858;47.832;-3.800;2023-04-15T14:42:00;4.97;;;0.70;;
50880;SDS011;36858;47.832;-3.800;2023-04-15T14:44:27;4.80;;;1.23;;
50880;SDS011;36858;47.832;-3.800;2023-04-15T14:46:54;14.50;;;3.33;;
50880;SDS011;36858;47.832;-3.800;2023-04-15T14:49:21;6.27;;;2.00;;
50880;SDS011;36858;47.832;-3.800;2023-04-15T14:51:49;7.67;;;2.67;;
50880;SDS011;36858;47.832;-3.800;2023-04-15T14:54:16;8.00;;;2.17;;
50880;SDS011;36858;47.832;-3.800;2023-04-15T14:56:43;15.53;;;3.70;;
50880;SDS011;36858;47.832;-3.800;2023-04-15T14:59:10;10.83;;;2.73;;
50880;SDS011;36858;47.832;-3.800;2023-04-15T15:01:38;9.63;;;2.30;;
50880;SDS011;36858;47.832;-3.800;2023-04-15T15:04:08;5.17;;;1.57;;
50880;SDS011;36858;47.832;-3.800;2023-04-15T15:06:36;3.03;;;1.20;;
50880;SDS011;36858;47.832;-3.800;2023-04-15T15:09:03;2.40;;;1.17;;
50880;SDS011;36858;47.832;-3.800;2023-04-15T15:11:31;1.17;;;0.60;;
50880;SDS011;36858;47.832;-3.800;2023-04-15T15:13:58;2.30;;;0.60;;
50880;SDS011;36858;47.832;-3.800;2023-04-15T15:16:26;3.20;;;0.60;;
50880;SDS011;36858;47.832;-3.800;2023-04-15T15:18:54;3.43;;;0.83;;
50880;SDS011;36858;47.832;-3.800;2023-04-15T15:21:22;0.97;;;0.53;;
50880;SDS011;36858;47.832;-3.800;2023-04-15T15:23:49;3.33;;;1.17;;
50880;SDS011;36858;47.832;-3.800;2023-04-15T15:26:16;0.93;;;0.33;;
50880;SDS011;36858;47.832;-3.800;2023-04-15T15:28:44;1.00;;;0.50;;
50880;SDS011;36858;47.832;-3.800;2023-04-15T15:31:13;1.63;;;0.70;;
50880;SDS011;36858;47.832;-3.800;2023-04-15T15:33:40;1.03;;;0.67;;
50880;SDS011;36858;47.832;-3.800;2023-04-15T15:36:08;3.87;;;0.67;;
50880;SDS011;36858;47.832;-3.800;2023-04-15T15:38:36;1.93;;;0.60;;
50880;SDS011;36858;47.832;-3.800;2023-04-15T15:41:03;1.90;;;0.57;;
50880;SDS011;36858;47.832;-3.800;2023-04-15T15:43:30;1.03;;;0.57;;
50880;SDS011;36858;47.832;-3.800;2023-04-15T15:45:58;2.60;;;0.90;;
50880;SDS011;36858;47.832;-3.800;2023-04-15T15:48:25;3.00;;;0.80;;
50880;SDS011;36858;47.832;-3.800;2023-04-15T15:50:52;1.10;;;0.50;;
50880;SDS011;36858;47.832;-3.800;2023-04-15T15:53:19;1.03;;;0.70;;
50880;SDS011;36858;47.832;-3.800;2023-04-15T15:55:49;1.00;;;0.50;;
50880;SDS011;36858;47.832;-3.800;2023-04-15T15:58:19;1.03;;;0.50;;
50880;SDS011;36858;47.832;-3.800;2023-04-15T16:00:46;1.57;;;0.50;;
50880;SDS011;36858;47.832;-3.800;2023-04-15T16:03:13;1.70;;;0.63;;
50880;SDS011;36858;47.832;-3.800;2023-04-15T16:05:41;1.13;;;0.50;;
50880;SDS011;36858;47.832;-3.800;2023-04-15T16:08:08;0.83;;;0.67;;
50880;SDS011;36858;47.832;-3.800;2023-04-15T16:10:36;2.57;;;0.77;;
50880;SDS011;36858;47.832;-3.800;2023-04-15T16:13:03;1.60;;;0.90;;
50880;SDS011;36858;47.832;-3.800;2023-04-15T16:15:30;1.63;;;0.90;;
50880;SDS011;36858;47.832;-3.800;2023-04-15T16:17:57;3.57;;;1.20;;
50880;SDS011;36858;47.832;-3.800;2023-04-15T16:20:25;4.03;;;1.10;;
50880;SDS011;36858;47.832;-3.800;2023-04-15T16:22:56;5.53;;;1.77;;
50880;SDS011;36858;47.832;-3.800;2023-04-15T16:25:24;4.70;;;1.23;;
50880;SDS011;36858;47.832;-3.800;2023-04-15T16:27:51;1.57;;;0.70;;
50880;SDS011;36858;47.832;-3.800;2023-04-15T16:30:34;2.30;;;0.80;;
50880;SDS011;36858;47.832;-3.800;2023-04-15T16:33:03;1.60;;;0.90;;
50880;SDS011;36858;47.832;-3.800;2023-04-15T16:35:33;3.50;;;0.60;;
50880;SDS011;36858;47.832;-3.800;2023-04-15T16:38:00;1.67;;;1.10;;
50880;SDS011;36858;47.832;-3.800;2023-04-15T16:40:27;3.07;;;0.90;;
50880;SDS011;36858;47.832;-3.800;2023-04-15T16:42:54;2.47;;;0.90;;
50880;SDS011;36858;47.832;-3.800;2023-04-15T16:45:22;3.03;;;1.10;;
50880;SDS011;36858;47.832;-3.800;2023-04-15T16:47:49;2.10;;;0.70;;
50880;SDS011;36858;47.832;-3.800;2023-04-15T16:50:16;1.93;;;1.00;;
50880;SDS011;36858;47.832;-3.800;2023-04-15T16:52:43;1.67;;;0.73;;
50880;SDS011;36858;47.832;-3.800;2023-04-15T16:55:10;3.43;;;0.80;;
50880;SDS011;36858;47.832;-3.800;2023-04-15T16:57:37;3.53;;;0.90;;
50880;SDS011;36858;47.832;-3.800;2023-04-15T17:00:24;1.57;;;0.63;;
50880;SDS011;36858;47.832;-3.800;2023-04-15T17:02:52;4.33;;;0.87;;
50880;SDS011;36858;47.832;-3.800;2023-04-15T17:05:19;3.00;;;1.10;;
50880;SDS011;36858;47.832;-3.800;2023-04-15T17:07:46;3.30;;;0.90;;
50880;SDS011;36858;47.832;-3.800;2023-04-15T17:10:13;4.87;;;1.10;;
50880;SDS011;36858;47.832;-3.800;2023-04-15T17:12:40;3.20;;;1.00;;
50880;SDS011;36858;47.832;-3.800;2023-04-15T17:15:07;4.10;;;0.97;;
50880;SDS011;36858;47.832;-3.800;2023-04-15T17:17:35;3.07;;;1.00;;
50880;SDS011;36858;47.832;-3.800;2023-04-15T17:20:02;2.83;;;1.20;;
50880;SDS011;36858;47.832;-3.800;2023-04-15T17:22:29;4.77;;;0.80;;
50880;SDS011;36858;47.832;-3.800;2023-04-15T17:24:56;3.47;;;0.90;;
50880;SDS011;36858;47.832;-3.800;2023-04-15T17:27:24;3.57;;;1.10;;
50880;SDS011;36858;47.832;-3.800;2023-04-15T17:29:53;5.00;;;1.30;;
50880;SDS011;36858;47.832;-3.800;2023-04-15T17:32:20;4.07;;;1.00;;
50880;SDS011;36858;47.832;-3.800;2023-04-15T17:34:48;6.40;;;0.83;;
50880;SDS011;36858;47.832;-3.800;2023-04-15T17:37:16;2.53;;;0.73;;
50880;SDS011;36858;47.832;-3.800;2023-04-15T17:39:44;3.87;;;1.00;;
50880;SDS011;36858;47.832;-3.800;2023-04-15T17:42:11;3.53;;;0.93;;
50880;SDS011;36858;47.832;-3.800;2023-04-15T17:44:38;3.20;;;0.70;;
50880;SDS011;36858;47.832;-3.800;2023-04-15T17:47:06;2.27;;;0.70;;
50880;SDS011;36858;47.832;-3.800;2023-04-15T17:49:33;1.73;;;0.80;;
50880;SDS011;36858;47.832;-3.800;2023-04-15T17:52:03;1.47;;;0.67;;
50880;SDS011;36858;47.832;-3.800;2023-04-15T17:54:30;3.37;;;0.70;;
50880;SDS011;36858;47.832;-3.800;2023-04-15T17:56:57;1.90;;;0.60;;
50880;SDS011;36858;47.832;-3.800;2023-04-15T17:59:26;1.37;;;0.67;;
50880;SDS011;36858;47.832;-3.800;2023-04-15T18:01:53;1.23;;;0.57;;
50880;SDS011;36858;47.832;-3.800;2023-04-15T18:04:21;2.10;;;0.60;;
50880;SDS011;36858;47.832;-3.800;2023-04-15T18:06:51;3.73;;;0.70;;
50880;SDS011;36858;47.832;-3.800;2023-04-15T18:09:18;1.70;;;0.40;;
50880;SDS011;36858;47.832;-3.800;2023-04-15T18:11:46;3.07;;;0.90;;
50880;SDS011;36858;47.832;-3.800;2023-04-15T18:14:14;2.17;;;0.70;;
50880;SDS011;36858;47.832;-3.800;2023-04-15T18:16:56;4.17;;;0.70;;
50880;SDS011;36858;47.832;-3.800;2023-04-15T18:19:23;3.80;;;0.57;;
50880;SDS011;36858;47.832;-3.800;2023-04-15T18:21:51;1.30;;;0.70;;
50880;SDS011;36858;47.832;-3.800;2023-04-15T18:24:18;0.93;;;0.50;;
50880;SDS011;36858;47.832;-3.800;2023-04-15T18:26:45;1.33;;;0.50;;
50880;SDS011;36858;47.832;-3.800;2023-04-15T18:29:14;2.23;;;0.50;;
50880;SDS011;36858;47.832;-3.800;2023-04-15T18:31:41;1.60;;;0.50;;
50880;SDS011;36858;47.832;-3.800;2023-04-15T18:34:09;1.93;;;1.20;;
50880;SDS011;36858;47.832;-3.800;2023-04-15T18:36:36;2.77;;;0.93;;
50880;SDS011;36858;47.832;-3.800;2023-04-15T18:39:03;2.73;;;0.67;;
50880;SDS011;36858;47.832;-3.800;2023-04-15T18:41:31;1.07;;;0.50;;
50880;SDS011;36858;47.832;-3.800;2023-04-15T18:43:58;0.87;;;0.53;;
50880;SDS011;36858;47.832;-3.800;2023-04-15T18:46:25;1.07;;;0.50;;
50880;SDS011;36858;47.832;-3.800;2023-04-15T18:48:53;2.73;;;0.70;;
50880;SDS011;36858;47.832;-3.800;2023-04-15T18:51:20;3.43;;;0.53;;
50880;SDS011;36858;47.832;-3.800;2023-04-15T18:53:47;4.37;;;0.90;;
50880;SDS011;36858;47.832;-3.800;2023-04-15T18:56:14;3.87;;;1.10;;
50880;SDS011;36858;47.832;-3.800;2023-04-15T18:58:41;2.67;;;0.80;;
50880;SDS011;36858;47.832;-3.800;2023-04-15T19:01:29;2.87;;;0.90;;
50880;SDS011;36858;47.832;-3.800;2023-04-15T19:03:57;3.40;;;0.90;;
50880;SDS011;36858;47.832;-3.800;2023-04-15T19:06:24;4.03;;;1.00;;
50880;SDS011;36858;47.832;-3.800;2023-04-15T19:08:52;4.83;;;1.00;;
50880;SDS011;36858;47.832;-3.800;2023-04-15T19:11:20;2.30;;;0.90;;
50880;SDS011;36858;47.832;-3.800;2023-04-15T19:13:47;3.17;;;1.10;;
50880;SDS011;36858;47.832;-3.800;2023-04-15T19:16:14;4.90;;;1.00;;
50880;SDS011;36858;47.832;-3.800;2023-04-15T19:18:41;4.33;;;0.70;;
50880;SDS011;36858;47.832;-3.800;2023-04-15T19:21:10;1.53;;;0.80;;
50880;SDS011;36858;47.832;-3.800;2023-04-15T19:23:37;4.23;;;1.10;;
50880;SDS011;36858;47.832;-3.800;2023-04-15T19:26:05;3.60;;;1.10;;
50880;SDS011;36858;47.832;-3.800;2023-04-15T19:28:33;8.50;;;1.03;;
50880;SDS011;36858;47.832;-3.800;2023-04-15T19:31:00;4.47;;;1.20;;
50880;SDS011;36858;47.832;-3.800;2023-04-15T19:33:27;5.90;;;1.23;;
50880;SDS011;36858;47.832;-3.800;2023-04-15T19:35:59;2.87;;;0.70;;
50880;SDS011;36858;47.832;-3.800;2023-04-15T19:38:27;5.53;;;1.00;;
50880;SDS011;36858;47.832;-3.800;2023-04-15T19:40:54;4.93;;;1.10;;
50880;SDS011;36858;47.832;-3.800;2023-04-15T19:43:21;3.87;;;1.00;;
50880;SDS011;36858;47.832;-3.800;2023-04-15T19:45:48;4.43;;;1.00;;
50880;SDS011;36858;47.832;-3.800;2023-04-15T19:48:18;2.70;;;1.00;;
50880;SDS011;36858;47.832;-3.800;2023-04-15T19:50:45;1.73;;;0.97;;
50880;SDS011;36858;47.832;-3.800;2023-04-15T19:53:13;4.97;;;1.03;;
50880;SDS011;36858;47.832;-3.800;2023-04-15T19:55:40;4.93;;;0.97;;
50880;SDS011;36858;47.832;-3.800;2023-04-15T19:58:07;3.90;;;1.23;;
50880;SDS011;36858;47.832;-3.800;2023-04-15T21:24:51;3.87;;;1.00;;
50880;SDS011;36858;47.832;-3.800;2023-04-15T21:27:18;4.03;;;0.80;;
50880;SDS011;36858;47.832;-3.800;2023-04-15T21:29:46;3.10;;;1.10;;
50880;SDS011;36858;47.832;-3.800;2023-04-15T21:32:12;2.53;;;1.07;;
50880;SDS011;36858;47.832;-3.800;2023-04-15T21:34:40;3.30;;;1.20;;
50880;SDS011;36858;47.832;-3.800;2023-04-15T21:37:06;5.90;;;1.80;;
50880;SDS011;36858;47.832;-3.800;2023-04-15T21:39:34;4.77;;;1.37;;
50880;SDS011;36858;47.832;-3.800;2023-04-15T21:42:01;3.63;;;1.50;;
50880;SDS011;36858;47.832;-3.800;2023-04-15T21:44:28;2.60;;;1.30;;
50880;SDS011;36858;47.832;-3.800;2023-04-15T21:46:55;4.57;;;1.70;;
50880;SDS011;36858;47.832;-3.800;2023-04-15T21:49:22;5.50;;;1.30;;
50880;SDS011;36858;47.832;-3.800;2023-04-15T21:51:50;4.23;;;1.10;;
50880;SDS011;36858;47.832;-3.800;2023-04-15T21:54:17;7.97;;;1.50;;
50880;SDS011;36858;47.832;-3.800;2023-04-15T21:56:45;3.13;;;1.07;;
50880;SDS011;36858;47.832;-3.800;2023-04-15T21:59:13;4.27;;;1.40;;
50880;SDS011;36858;47.832;-3.800;2023-04-15T22:01:40;3.37;;;1.00;;
50880;SDS011;36858;47.832;-3.800;2023-04-15T22:04:07;2.90;;;1.20;;
50880;SDS011;36858;47.832;-3.800;2023-04-15T22:06:36;4.90;;;1.30;;
50880;SDS011;36858;47.832;-3.800;2023-04-15T22:09:03;3.30;;;1.50;;
50880;SDS011;36858;47.832;-3.800;2023-04-15T22:11:31;8.27;;;2.43;;
50880;SDS011;36858;47.832;-3.800;2023-04-15T22:13:58;6.90;;;1.53;;
50880;SDS011;36858;47.832;-3.800;2023-04-15T22:16:25;4.33;;;1.43;;
50880;SDS011;36858;47.832;-3.800;2023-04-15T22:18:53;9.23;;;1.60;;
50880;SDS011;36858;47.832;-3.800;2023-04-15T22:21:20;3.03;;;1.13;;
50880;SDS011;36858;47.832;-3.800;2023-04-15T22:23:48;7.43;;;1.50;;
50880;SDS011;36858;47.832;-3.800;2023-04-15T22:26:15;5.20;;;1.60;;
50880;SDS011;36858;47.832;-3.800;2023-04-15T22:28:42;4.80;;;1.43;;
50880;SDS011;36858;47.832;-3.800;2023-04-15T22:31:09;5.17;;;1.30;;
50880;SDS011;36858;47.832;-3.800;2023-04-15T22:33:36;4.57;;;1.73;;
50880;SDS011;36858;47.832;-3.800;2023-04-15T22:36:04;4.80;;;2.17;;
50880;SDS011;36858;47.832;-3.800;2023-04-15T22:38:31;3.90;;;1.20;;
50880;SDS011;36858;47.832;-3.800;2023-04-15T22:40:59;6.53;;;1.77;;